createdAt,value
2018-07-13T00:01:51.656Z,19.36
2018-07-13T00:04:19.265Z,19.36
2018-07-13T00:06:46.936Z,19.34
2018-07-13T00:09:15.558Z,19.33
2018-07-13T00:11:43.174Z,19.30
2018-07-13T00:14:13.134Z,19.29
2018-07-13T00:16:41.678Z,19.28
2018-07-13T00:19:09.376Z,19.27
2018-07-13T00:21:37.064Z,19.27
2018-07-13T00:24:05.278Z,19.26
2018-07-13T00:26:32.898Z,19.26
2018-07-13T00:29:00.554Z,19.24
2018-07-13T00:31:28.387Z,19.23
2018-07-13T00:33:56.625Z,19.23
2018-07-13T00:36:24.324Z,19.22
2018-07-13T00:38:53.288Z,19.23
2018-07-13T00:41:21.544Z,19.20
2018-07-13T00:43:49.476Z,19.17
2018-07-13T00:46:18.029Z,19.16
2018-07-13T00:48:45.699Z,18.41
2018-07-13T00:51:13.421Z,19.12
2018-07-13T00:53:41.892Z,19.10
2018-07-13T00:56:09.537Z,19.07
2018-07-13T00:58:37.288Z,19.06
2018-07-13T01:01:05.227Z,19.04
2018-07-13T01:03:33.068Z,19.03
2018-07-13T01:06:00.888Z,19.03
2018-07-13T01:08:29.001Z,19.01
2018-07-13T01:10:56.696Z,18.99
2018-07-13T01:13:24.408Z,19.00
2018-07-13T01:15:52.452Z,18.98
2018-07-13T01:18:20.106Z,18.97
2018-07-13T01:20:47.748Z,18.95
2018-07-13T01:23:16.107Z,18.94
2018-07-13T01:25:43.776Z,18.92
2018-07-13T01:28:11.428Z,18.92
2018-07-13T01:30:39.605Z,18.90
2018-07-13T01:33:07.268Z,18.89
2018-07-13T01:35:34.983Z,18.88
2018-07-13T01:38:02.870Z,18.87
2018-07-13T01:40:30.592Z,18.85
2018-07-13T01:42:58.225Z,18.83
2018-07-13T01:45:26.260Z,18.81
2018-07-13T01:47:53.865Z,18.78
2018-07-13T01:50:21.548Z,18.74
2018-07-13T01:52:49.592Z,18.71
2018-07-13T01:55:17.480Z,18.67
2018-07-13T01:57:45.059Z,18.65
2018-07-13T02:00:13.189Z,18.63
2018-07-13T02:02:40.825Z,18.61
2018-07-13T02:05:08.697Z,18.58
2018-07-13T02:07:36.868Z,18.56
2018-07-13T02:10:04.639Z,18.54
2018-07-13T02:12:32.266Z,18.52
2018-07-13T02:15:00.323Z,18.48
2018-07-13T02:17:27.977Z,18.45
2018-07-13T02:19:55.628Z,18.42
2018-07-13T02:22:23.611Z,18.39
2018-07-13T02:24:51.309Z,18.36
2018-07-13T02:27:19.300Z,18.31
2018-07-13T02:29:47.473Z,18.28
2018-07-13T02:32:15.140Z,18.24
2018-07-13T02:34:42.774Z,18.20
2018-07-13T02:37:10.861Z,18.18
2018-07-13T02:39:38.521Z,18.15
2018-07-13T02:42:06.251Z,18.13
2018-07-13T02:44:34.353Z,18.11
2018-07-13T02:47:02.072Z,18.08
2018-07-13T02:49:29.764Z,18.08
2018-07-13T02:51:57.713Z,18.06
2018-07-13T02:54:25.624Z,18.05
2018-07-13T02:56:53.313Z,18.05
2018-07-13T02:59:21.458Z,18.04
2018-07-13T03:01:49.243Z,18.04
2018-07-13T03:04:16.863Z,18.03
2018-07-13T03:06:45.271Z,18.03
2018-07-13T03:09:13.041Z,18.04
2018-07-13T03:11:41.038Z,18.04
2018-07-13T03:14:09.041Z,18.06
2018-07-13T03:16:37.406Z,18.08
2018-07-13T03:19:05.241Z,18.10
2018-07-13T03:21:33.191Z,18.12
2018-07-13T03:24:00.978Z,18.14
2018-07-13T03:26:28.736Z,18.16
2018-07-13T03:28:56.719Z,18.18
2018-07-13T03:31:24.437Z,18.19
2018-07-13T03:33:52.075Z,18.20
2018-07-13T03:36:20.110Z,18.22
2018-07-13T03:38:47.735Z,18.24
2018-07-13T03:41:15.377Z,18.26
2018-07-13T03:43:43.456Z,18.28
2018-07-13T03:46:11.062Z,18.31
2018-07-13T03:48:38.837Z,18.33
2018-07-13T03:51:06.996Z,18.37
2018-07-13T03:53:34.798Z,18.38
2018-07-13T03:56:02.713Z,18.42
2018-07-13T03:58:30.730Z,18.45
2018-07-13T04:00:58.331Z,18.47
2018-07-13T04:03:25.997Z,18.50
2018-07-13T04:05:53.924Z,18.52
2018-07-13T04:08:21.690Z,18.55
2018-07-13T04:10:49.389Z,18.60
2018-07-13T04:13:17.367Z,18.63
2018-07-13T04:15:45.307Z,18.68
2018-07-13T04:18:18.807Z,18.72
2018-07-13T04:20:47.054Z,18.76
2018-07-13T04:23:14.748Z,18.80
2018-07-13T04:25:42.480Z,18.83
2018-07-13T04:28:11.615Z,18.86
2018-07-13T04:30:39.489Z,18.89
2018-07-13T04:33:07.089Z,18.93
2018-07-13T04:35:35.045Z,18.97
2018-07-13T04:38:02.663Z,18.81
2018-07-13T04:40:30.360Z,19.03
2018-07-13T04:42:58.271Z,19.05
2018-07-13T04:45:26.183Z,19.05
2018-07-13T04:47:53.918Z,19.06
2018-07-13T04:50:22.074Z,19.07
2018-07-13T04:52:49.781Z,19.09
2018-07-13T04:55:17.605Z,19.13
2018-07-13T04:57:45.697Z,19.17
2018-07-13T05:00:13.465Z,19.23
2018-07-13T05:02:41.193Z,19.27
2018-07-13T05:05:09.206Z,19.30
2018-07-13T05:07:37.065Z,19.35
2018-07-13T05:10:05.455Z,19.39
2018-07-13T05:12:34.838Z,19.43
2018-07-13T05:15:02.530Z,19.46
2018-07-13T05:17:30.170Z,19.51
2018-07-13T05:19:58.167Z,19.55
2018-07-13T05:22:25.959Z,19.58
2018-07-13T05:24:53.721Z,19.59
2018-07-13T05:27:21.772Z,19.63
2018-07-13T05:29:49.500Z,19.67
2018-07-13T05:32:17.430Z,19.72
2018-07-13T05:34:45.397Z,19.75
2018-07-13T05:37:13.202Z,19.80
2018-07-13T05:39:40.957Z,19.84
2018-07-13T05:42:09.134Z,19.90
2018-07-13T05:44:36.956Z,19.95
2018-07-13T05:47:04.700Z,20.00
2018-07-13T05:49:32.820Z,20.05
2018-07-13T05:52:00.695Z,20.10
2018-07-13T05:54:29.452Z,20.15
2018-07-13T05:56:58.541Z,20.20
2018-07-13T05:59:27.089Z,20.24
2018-07-13T06:01:54.821Z,20.29
2018-07-13T06:04:22.985Z,20.34
2018-07-13T06:06:50.723Z,20.38
2018-07-13T06:09:18.464Z,20.44
2018-07-13T06:11:46.735Z,20.50
2018-07-13T06:14:14.457Z,20.55
2018-07-13T06:16:42.992Z,20.59
2018-07-13T06:19:10.899Z,20.66
2018-07-13T06:21:39.353Z,20.71
2018-07-13T06:24:07.278Z,20.75
2018-07-13T06:26:35.170Z,20.81
2018-07-13T06:29:02.865Z,20.87
2018-07-13T06:31:30.678Z,20.92
2018-07-13T06:33:58.716Z,20.99
2018-07-13T06:36:26.445Z,21.05
2018-07-13T06:38:54.195Z,21.10
2018-07-13T06:41:22.297Z,21.17
2018-07-13T06:43:50.107Z,21.21
2018-07-13T06:46:17.809Z,21.27
2018-07-13T06:48:45.760Z,21.32
2018-07-13T06:51:13.512Z,21.37
2018-07-13T06:53:41.276Z,21.40
2018-07-13T06:56:09.321Z,21.46
2018-07-13T06:58:48.344Z,21.52
2018-07-13T07:01:16.193Z,21.57
2018-07-13T07:04:49.925Z,20.91
2018-07-13T07:07:26.596Z,21.64
2018-07-13T07:09:55.105Z,21.68
2018-07-13T07:12:33.225Z,21.71
2018-07-13T07:15:01.197Z,21.74
2018-07-13T07:17:29.114Z,21.80
2018-07-13T07:19:56.884Z,21.84
2018-07-13T07:22:24.526Z,21.89
2018-07-13T07:24:52.434Z,21.94
2018-07-13T07:27:20.309Z,21.99
2018-07-13T07:29:48.021Z,22.04
2018-07-13T07:32:15.954Z,22.09
2018-07-13T07:34:43.783Z,22.13
2018-07-13T07:37:11.452Z,22.19
2018-07-13T07:39:39.225Z,22.24
2018-07-13T07:42:06.997Z,22.30
2018-07-13T07:44:34.741Z,22.36
2018-07-13T07:47:02.638Z,22.39
2018-07-13T07:49:31.260Z,22.44
2018-07-13T07:51:58.909Z,22.47
2018-07-13T07:54:26.711Z,22.51
2018-07-13T07:57:09.286Z,22.54
2018-07-13T07:59:37.681Z,22.57
2018-07-13T08:02:05.359Z,22.60
2018-07-13T08:04:33.306Z,22.64
2018-07-13T08:07:01.536Z,22.68
2018-07-13T08:09:28.899Z,22.71
2018-07-13T08:11:56.728Z,22.77
2018-07-13T08:14:25.407Z,22.82
2018-07-13T08:16:53.020Z,22.86
2018-07-13T08:19:20.840Z,22.90
2018-07-13T08:21:49.413Z,22.94
2018-07-13T08:24:19.508Z,22.98
2018-07-13T08:26:47.534Z,23.03
2018-07-13T08:29:16.473Z,23.08
2018-07-13T08:31:44.090Z,23.14
2018-07-13T08:34:12.514Z,23.20
2018-07-13T08:36:40.194Z,23.26
2018-07-13T08:39:08.697Z,23.31
2018-07-13T08:41:36.466Z,23.38
2018-07-13T08:44:04.264Z,23.45
2018-07-13T08:46:31.977Z,23.52
2018-07-13T08:48:59.785Z,23.58
2018-07-13T08:51:27.632Z,23.62
2018-07-13T08:53:55.466Z,23.67
2018-07-13T08:56:23.406Z,23.71
2018-07-13T08:58:51.985Z,23.76
2018-07-13T09:01:19.691Z,23.79
2018-07-13T09:03:47.527Z,23.83
2018-07-13T09:06:15.454Z,23.85
2018-07-13T09:08:43.077Z,23.89
2018-07-13T09:11:10.845Z,23.93
2018-07-13T09:13:38.745Z,23.97
2018-07-13T09:16:06.665Z,24.01
2018-07-13T09:18:34.390Z,24.04
2018-07-13T09:21:02.169Z,24.10
2018-07-13T09:23:29.937Z,24.13
2018-07-13T09:25:57.868Z,24.17
2018-07-13T09:28:25.824Z,24.21
2018-07-13T09:30:53.664Z,24.25
2018-07-13T09:33:21.649Z,24.26
2018-07-13T09:35:49.580Z,24.29
2018-07-13T09:38:17.206Z,24.32
2018-07-13T09:40:45.343Z,24.36
2018-07-13T09:43:13.327Z,24.41
2018-07-13T09:45:40.988Z,24.45
2018-07-13T09:48:09.028Z,24.52
2018-07-13T09:50:36.725Z,24.58
2018-07-13T09:53:04.502Z,24.65
2018-07-13T09:55:32.329Z,24.77
2018-07-13T09:58:00.243Z,24.92
2018-07-13T10:00:33.435Z,25.10
2018-07-13T10:03:01.711Z,25.28
2018-07-13T10:05:29.435Z,25.49
2018-07-13T10:07:57.193Z,25.67
2018-07-13T10:10:25.255Z,25.84
2018-07-13T10:12:53.011Z,26.01
2018-07-13T10:15:20.790Z,26.20
2018-07-13T10:17:48.793Z,26.38
2018-07-13T10:20:16.469Z,26.54
2018-07-13T10:22:44.219Z,26.68
2018-07-13T10:25:12.949Z,26.82
2018-07-13T10:27:40.702Z,26.93
2018-07-13T10:30:11.216Z,27.03
2018-07-13T10:32:41.559Z,27.16
2018-07-13T10:35:09.717Z,27.28
2018-07-13T10:37:39.309Z,27.39
2018-07-13T10:40:07.250Z,27.50
2018-07-13T10:42:35.048Z,27.62
2018-07-13T10:45:03.053Z,27.70
2018-07-13T10:47:30.901Z,27.77
2018-07-13T10:49:58.551Z,27.85
2018-07-13T10:52:26.228Z,27.91
2018-07-13T10:54:54.206Z,28.00
2018-07-13T10:57:21.833Z,28.08
2018-07-13T10:59:49.499Z,28.15
2018-07-13T11:02:17.406Z,28.21
2018-07-13T11:04:44.994Z,28.26
2018-07-13T11:07:13.609Z,28.14
2018-07-13T11:09:41.394Z,28.35
2018-07-13T11:12:09.040Z,28.38
2018-07-13T11:14:36.839Z,28.39
2018-07-13T11:17:04.867Z,28.42
2018-07-13T11:19:32.646Z,28.44
2018-07-13T11:22:00.224Z,28.49
2018-07-13T11:24:28.149Z,28.53
2018-07-13T11:26:55.744Z,28.54
2018-07-13T11:29:23.360Z,28.56
2018-07-13T11:31:51.472Z,28.60
2018-07-13T11:34:19.079Z,28.63
2018-07-13T11:36:46.707Z,28.67
2018-07-13T11:39:14.571Z,28.69
2018-07-13T11:41:42.239Z,28.71
2018-07-13T11:44:09.918Z,28.70
2018-07-13T11:46:37.820Z,28.70
2018-07-13T11:49:05.791Z,28.70
2018-07-13T11:51:33.391Z,28.68
2018-07-13T11:54:02.152Z,28.67
2018-07-13T11:56:29.802Z,28.70
2018-07-13T11:58:57.488Z,28.70
2018-07-13T12:01:25.220Z,28.73
2018-07-13T12:03:52.859Z,28.76
2018-07-13T12:06:20.437Z,28.73
2018-07-13T12:08:48.410Z,28.68
2018-07-13T12:11:16.097Z,28.66
2018-07-13T12:13:43.804Z,28.65
2018-07-13T12:16:11.850Z,28.66
2018-07-13T12:18:39.597Z,28.68
2018-07-13T12:21:07.421Z,28.71
2018-07-13T12:23:35.297Z,28.72
2018-07-13T12:26:02.962Z,28.68
2018-07-13T12:28:30.591Z,28.61
2018-07-13T12:30:58.679Z,28.52
2018-07-13T12:33:26.518Z,28.41
2018-07-13T12:35:54.141Z,28.32
2018-07-13T12:38:22.045Z,28.27
2018-07-13T12:40:49.900Z,28.25
2018-07-13T12:43:17.612Z,28.26
2018-07-13T12:45:45.595Z,28.21
2018-07-13T12:48:13.256Z,28.12
2018-07-13T12:50:41.242Z,28.05
2018-07-13T12:53:09.291Z,28.03
2018-07-13T12:55:36.945Z,28.03
2018-07-13T12:58:04.636Z,28.04
2018-07-13T13:00:32.728Z,28.02
2018-07-13T13:03:00.369Z,27.97
2018-07-13T13:05:27.997Z,27.97
2018-07-13T13:07:56.090Z,27.95
2018-07-13T13:10:23.719Z,27.92
2018-07-13T13:12:51.551Z,27.87
2018-07-13T13:15:19.674Z,27.79
2018-07-13T13:17:48.380Z,27.73
2018-07-13T13:20:16.042Z,27.65
2018-07-13T13:22:44.267Z,27.54
2018-07-13T13:25:11.912Z,27.45
2018-07-13T13:27:39.547Z,27.36
2018-07-13T13:30:07.760Z,27.33
2018-07-13T13:32:35.386Z,27.27
2018-07-13T13:35:03.102Z,27.17
2018-07-13T13:37:31.359Z,27.09
2018-07-13T13:39:59.063Z,27.01
2018-07-13T13:42:26.823Z,26.94
2018-07-13T13:44:54.446Z,26.89
2018-07-13T13:47:22.057Z,26.81
2018-07-13T13:49:51.029Z,26.76
2018-07-13T13:52:19.758Z,26.71
2018-07-13T13:54:47.321Z,26.67
2018-07-13T13:57:14.989Z,26.59
2018-07-13T13:59:42.922Z,26.52
2018-07-13T14:02:10.513Z,26.47
2018-07-13T14:04:38.106Z,26.45
2018-07-13T14:07:05.998Z,26.44
2018-07-13T14:09:33.606Z,26.42
2018-07-13T14:12:01.275Z,26.37
2018-07-13T14:14:29.181Z,26.30
2018-07-13T14:16:56.832Z,26.26
2018-07-13T14:19:24.433Z,26.21
2018-07-13T14:21:52.500Z,26.18
2018-07-13T14:24:20.424Z,26.14
2018-07-13T14:26:48.083Z,26.11
2018-07-13T14:29:15.903Z,26.08
2018-07-13T14:31:43.604Z,26.05
2018-07-13T14:34:11.216Z,26.03
2018-07-13T14:36:39.044Z,26.02
2018-07-13T14:39:07.991Z,26.01
2018-07-13T14:41:35.884Z,26.00
2018-07-13T14:44:04.094Z,25.98
2018-07-13T14:46:31.791Z,25.98
2018-07-13T14:48:59.443Z,25.94
2018-07-13T14:51:27.367Z,25.90
2018-07-13T14:53:55.038Z,25.90
2018-07-13T14:56:22.686Z,25.89
2018-07-13T14:58:50.557Z,25.91
2018-07-13T15:01:18.207Z,25.89
2018-07-13T15:03:46.809Z,25.89
2018-07-13T15:06:14.876Z,25.88
2018-07-13T15:08:42.446Z,25.88
2018-07-13T15:11:10.250Z,25.86
2018-07-13T15:13:38.148Z,25.85
2018-07-13T15:16:05.763Z,25.84
2018-07-13T15:18:33.380Z,25.86
2018-07-13T15:21:01.310Z,25.89
2018-07-13T15:23:28.928Z,25.90
2018-07-13T15:25:56.632Z,25.92
2018-07-13T15:28:24.596Z,25.93
2018-07-13T15:30:52.277Z,25.93
2018-07-13T15:33:19.849Z,25.94
2018-07-13T15:35:48.995Z,25.96
2018-07-13T15:38:16.663Z,25.94
2018-07-13T15:40:44.470Z,25.95
2018-07-13T15:43:12.518Z,26.02
2018-07-13T15:45:40.190Z,26.09
2018-07-13T15:48:07.820Z,26.17
2018-07-13T15:50:35.681Z,26.26
2018-07-13T15:53:04.249Z,26.35
2018-07-13T15:55:37.564Z,26.43
2018-07-13T15:58:05.606Z,26.54
2018-07-13T16:00:33.220Z,26.66
2018-07-13T16:03:00.892Z,26.80
2018-07-13T16:05:28.947Z,26.92
2018-07-13T16:07:57.254Z,26.99
2018-07-13T16:10:24.944Z,26.51
2018-07-13T16:12:53.282Z,27.07
2018-07-13T16:15:21.845Z,27.08
2018-07-13T16:17:49.552Z,27.09
2018-07-13T16:20:17.597Z,27.09
2018-07-13T16:22:45.326Z,27.04
2018-07-13T16:25:12.996Z,26.95
2018-07-13T16:27:41.295Z,26.86
2018-07-13T16:30:15.546Z,26.77
2018-07-13T16:32:43.270Z,26.68
2018-07-13T16:35:10.917Z,26.55
2018-07-13T16:37:38.684Z,26.42
2018-07-13T16:40:06.750Z,26.33
2018-07-13T16:42:35.295Z,26.26
2018-07-13T16:45:03.016Z,26.16
2018-07-13T16:47:30.899Z,26.06
2018-07-13T16:49:58.540Z,25.98
2018-07-13T16:52:26.182Z,25.87
2018-07-13T16:54:54.046Z,25.79
2018-07-13T16:57:21.765Z,25.73
2018-07-13T16:59:49.527Z,25.69
2018-07-13T17:02:17.629Z,25.62
2018-07-13T17:04:45.325Z,25.52
2018-07-13T17:07:12.977Z,25.41
2018-07-13T17:09:41.012Z,25.33
2018-07-13T17:12:08.690Z,25.26
2018-07-13T17:14:36.305Z,25.21
2018-07-13T17:17:04.308Z,25.16
2018-07-13T17:19:32.055Z,25.13
2018-07-13T17:21:59.777Z,25.09
2018-07-13T17:24:27.813Z,25.06
2018-07-13T17:26:55.411Z,25.02
2018-07-13T17:29:23.204Z,24.96
2018-07-13T17:31:51.084Z,24.89
2018-07-13T17:34:18.747Z,24.82
2018-07-13T17:36:46.388Z,24.74
2018-07-13T17:39:14.441Z,24.69
2018-07-13T17:41:42.126Z,24.61
2018-07-13T17:44:09.824Z,24.54
2018-07-13T17:46:37.689Z,24.49
2018-07-13T17:49:05.624Z,24.43
2018-07-13T17:51:33.398Z,24.34
2018-07-13T17:54:01.503Z,24.27
2018-07-13T17:56:29.637Z,24.22
2018-07-13T17:58:57.331Z,24.16
2018-07-13T18:01:25.176Z,24.08
2018-07-13T18:03:52.833Z,24.01
2018-07-13T18:06:20.480Z,23.94
2018-07-13T18:08:48.481Z,23.89
2018-07-13T18:11:16.124Z,23.85
2018-07-13T18:13:44.279Z,23.79
2018-07-13T18:16:12.359Z,23.76
2018-07-13T18:18:39.936Z,23.72
2018-07-13T18:21:07.622Z,23.68
2018-07-13T18:23:35.508Z,23.63
2018-07-13T18:26:03.201Z,23.60
2018-07-13T18:28:30.775Z,23.55
2018-07-13T18:30:59.708Z,23.51
2018-07-13T18:33:27.406Z,23.46
2018-07-13T18:35:55.072Z,23.39
2018-07-13T18:38:22.947Z,23.30
2018-07-13T18:40:50.571Z,23.24
2018-07-13T18:43:18.359Z,23.18
2018-07-13T18:45:46.302Z,23.12
2018-07-13T18:48:13.881Z,23.10
2018-07-13T18:50:41.587Z,23.05
2018-07-13T18:53:09.488Z,23.01
2018-07-13T18:55:37.110Z,22.98
2018-07-13T18:58:04.849Z,22.94
2018-07-13T19:00:32.764Z,22.91
2018-07-13T19:03:00.456Z,22.86
2018-07-13T19:05:28.654Z,22.78
2018-07-13T19:07:56.803Z,22.72
2018-07-13T19:10:24.411Z,22.68
2018-07-13T19:12:52.384Z,22.65
2018-07-13T19:15:20.271Z,22.61
2018-07-13T19:17:47.881Z,22.57
2018-07-13T19:20:15.542Z,22.55
2018-07-13T19:22:43.762Z,22.54
2018-07-13T19:25:11.337Z,22.52
2018-07-13T19:27:39.001Z,22.50
2018-07-13T19:30:07.068Z,22.46
2018-07-13T19:32:34.722Z,22.43
2018-07-13T19:35:02.368Z,22.40
2018-07-13T19:37:30.316Z,22.35
2018-07-13T19:39:58.033Z,22.32
2018-07-13T19:42:25.729Z,22.27
2018-07-13T19:44:53.789Z,22.22
2018-07-13T19:47:21.550Z,22.17
2018-07-13T19:49:49.872Z,22.14
2018-07-13T19:52:17.962Z,22.10
2018-07-13T19:54:45.579Z,22.08
2018-07-13T19:57:13.268Z,22.04
2018-07-13T19:59:41.427Z,22.00
2018-07-13T20:02:09.014Z,21.95
2018-07-13T20:04:36.842Z,21.93
2018-07-13T20:07:04.840Z,21.90
2018-07-13T20:09:32.592Z,21.87
2018-07-13T20:12:00.232Z,21.84
2018-07-13T20:14:28.612Z,21.82
2018-07-13T20:16:56.279Z,21.79
2018-07-13T20:19:23.955Z,21.76
2018-07-13T20:21:52.313Z,21.73
2018-07-13T20:24:19.903Z,21.69
2018-07-13T20:26:47.576Z,21.63
2018-07-13T20:29:15.480Z,21.58
2018-07-13T20:31:43.240Z,21.55
2018-07-13T20:34:11.141Z,21.53
2018-07-13T20:36:38.914Z,21.51
2018-07-13T20:39:06.930Z,21.47
2018-07-13T20:41:35.824Z,21.44
2018-07-13T20:44:03.610Z,21.41
2018-07-13T20:46:31.240Z,21.40
2018-07-13T20:48:58.873Z,21.38
2018-07-13T20:51:27.006Z,21.37
2018-07-13T20:53:54.605Z,21.34
2018-07-13T20:56:22.295Z,21.31
2018-07-13T20:58:50.288Z,21.26
2018-07-13T21:01:17.997Z,21.23
2018-07-13T21:03:45.667Z,21.19
2018-07-13T21:06:13.766Z,21.16
2018-07-13T21:08:41.480Z,21.12
2018-07-13T21:11:09.123Z,21.09
2018-07-13T21:13:37.131Z,21.07
2018-07-13T21:16:04.753Z,21.06
2018-07-13T21:18:32.359Z,21.03
2018-07-13T21:21:00.597Z,21.00
2018-07-13T21:23:28.243Z,20.98
2018-07-13T21:25:55.856Z,20.95
2018-07-13T21:28:23.864Z,20.92
2018-07-13T21:30:51.501Z,20.89
2018-07-13T21:33:19.244Z,20.85
2018-07-13T21:35:47.353Z,20.79
2018-07-13T21:38:14.966Z,20.76
2018-07-13T21:40:42.670Z,20.73
2018-07-13T21:43:11.531Z,20.73
2018-07-13T21:45:39.294Z,20.72
2018-07-13T21:48:07.192Z,20.69
2018-07-13T21:50:35.271Z,20.67
2018-07-13T21:53:02.977Z,20.63
2018-07-13T21:55:30.627Z,20.59
2018-07-13T21:57:58.668Z,20.57
2018-07-13T22:00:26.266Z,20.55
2018-07-13T22:02:54.157Z,20.54
2018-07-13T22:05:21.902Z,20.53
2018-07-13T22:07:49.556Z,20.48
2018-07-13T22:10:17.421Z,20.48
2018-07-13T22:12:45.434Z,20.45
2018-07-13T22:15:13.047Z,20.43
2018-07-13T22:17:40.684Z,20.40
2018-07-13T22:20:08.561Z,20.37
2018-07-13T22:22:36.491Z,20.34
2018-07-13T22:25:04.174Z,20.31
2018-07-13T22:27:32.177Z,20.29
2018-07-13T22:29:59.772Z,20.29
2018-07-13T22:32:27.554Z,20.29
2018-07-13T22:34:55.516Z,20.27
2018-07-13T22:37:23.324Z,20.27
2018-07-13T22:39:50.949Z,20.24
2018-07-13T22:42:18.848Z,20.23
2018-07-13T22:44:46.466Z,20.21
2018-07-13T22:47:14.075Z,20.18
2018-07-13T22:49:41.898Z,20.15
2018-07-13T22:52:09.478Z,20.13
2018-07-13T22:54:37.117Z,20.10
2018-07-13T22:57:05.665Z,20.08
2018-07-13T22:59:33.285Z,20.06
2018-07-13T23:02:00.912Z,20.01
2018-07-13T23:04:28.617Z,19.99
2018-07-13T23:06:56.269Z,19.94
2018-07-13T23:09:23.842Z,19.90
2018-07-13T23:11:51.724Z,19.86
2018-07-13T23:14:19.445Z,19.82
2018-07-13T23:16:47.111Z,19.79
2018-07-13T23:19:15.817Z,19.76
2018-07-13T23:21:44.412Z,19.74
2018-07-13T23:24:12.057Z,19.72
2018-07-13T23:26:39.915Z,19.71
2018-07-13T23:29:08.349Z,19.70
2018-07-13T23:31:36.002Z,19.68
2018-07-13T23:34:04.135Z,19.65
2018-07-13T23:36:31.753Z,19.63
2018-07-13T23:38:59.622Z,19.60
2018-07-13T23:41:27.701Z,19.58
2018-07-13T23:43:55.311Z,19.55
2018-07-13T23:46:22.980Z,19.51
2018-07-13T23:48:51.229Z,19.48
2018-07-13T23:51:18.855Z,19.46
2018-07-13T23:53:46.486Z,19.41
2018-07-13T23:56:14.545Z,19.39
2018-07-13T23:58:42.229Z,19.37
